createdAt,value
2023-02-05T00:03:14.231Z,50.55
2023-02-05T00:08:19.457Z,50.33
2023-02-05T00:13:24.823Z,49.30
2023-02-05T00:18:30.276Z,44.03
2023-02-05T00:23:36.881Z,50.37
2023-02-05T00:28:42.835Z,48.88
2023-02-05T00:33:49.054Z,41.38
2023-02-05T00:38:54.607Z,44.22
2023-02-05T00:44:00.313Z,40.47
2023-02-05T00:49:06.012Z,33.42
2023-02-05T00:54:11.914Z,40.25
2023-02-05T00:59:26.771Z,37.28
2023-02-05T01:10:10.445Z,55.83
2023-02-05T01:15:16.563Z,57.92
2023-02-05T01:20:23.421Z,37.45
2023-02-05T01:25:29.400Z,53.13
2023-02-05T01:30:34.651Z,60.17
2023-02-05T01:35:40.123Z,74.43
2023-02-05T01:40:47.801Z,59.87
2023-02-05T01:46:28.922Z,50.67
2023-02-05T01:51:38.332Z,72.63
2023-02-05T01:56:48.069Z,66.53
2023-02-05T02:01:54.896Z,71.88
2023-02-05T02:07:04.617Z,69.53
2023-02-05T02:12:18.497Z,72.68
2023-02-05T02:17:30.912Z,49.58
2023-02-05T02:23:24.847Z,49.58
2023-02-05T02:29:06.136Z,58.42
2023-02-05T02:34:28.950Z,34.47
2023-02-05T02:40:33.209Z,48.78
2023-02-05T02:45:49.370Z,67.38
2023-02-05T02:50:58.329Z,36.47
2023-02-05T02:56:06.327Z,49.83
2023-02-05T03:01:14.909Z,66.65
2023-02-05T03:06:22.878Z,55.08
2023-02-05T03:11:30.259Z,51.65
2023-02-05T03:16:37.047Z,45.08
2023-02-05T03:21:49.655Z,47.05
2023-02-05T03:26:56.263Z,37.63
2023-02-05T03:32:45.079Z,38.55
2023-02-05T04:01:38.061Z,29.90
2023-02-05T04:06:47.660Z,31.20
2023-02-05T04:11:55.517Z,23.10
2023-02-05T04:17:02.795Z,37.25
2023-02-05T04:22:09.255Z,23.85
2023-02-05T04:27:27.030Z,24.67
2023-02-05T04:32:43.136Z,26.80
2023-02-05T04:44:10.056Z,32.17
2023-02-05T04:44:54.507Z,33.28
2023-02-05T04:50:01.868Z,29.42
2023-02-05T04:55:13.159Z,23.50
2023-02-05T05:00:26.963Z,31.63
2023-02-05T05:05:36.784Z,33.15
2023-02-05T05:10:48.143Z,32.55
2023-02-05T05:16:00.500Z,37.40
2023-02-05T05:21:16.168Z,35.65
2023-02-05T05:26:51.757Z,29.92
2023-02-05T05:37:46.915Z,27.63
2023-02-05T05:43:23.167Z,27.25
2023-02-05T05:48:30.283Z,19.52
2023-02-05T05:53:42.259Z,27.23
2023-02-05T05:58:55.484Z,19.17
2023-02-05T06:04:04.650Z,20.50
2023-02-05T06:09:15.892Z,21.10
2023-02-05T06:14:25.880Z,11.63
2023-02-05T06:24:57.501Z,16.45
2023-02-05T06:30:16.685Z,16.98
2023-02-05T06:35:27.324Z,10.43
2023-02-05T06:46:30.414Z,18.63
2023-02-05T06:51:40.278Z,17.10
2023-02-05T06:56:56.482Z,15.02
2023-02-05T07:02:21.821Z,12.98
2023-02-05T07:13:23.743Z,14.30
2023-02-05T07:18:38.799Z,16.80
2023-02-05T07:23:48.678Z,20.25
2023-02-05T07:28:57.852Z,16.55
2023-02-05T07:34:03.580Z,24.33
2023-02-05T07:39:11.561Z,30.58
2023-02-05T07:44:19.992Z,19.90
2023-02-05T07:49:27.051Z,28.45
2023-02-05T07:54:32.619Z,37.03
2023-02-05T07:59:39.482Z,32.75
2023-02-05T08:04:48.556Z,39.08
2023-02-05T08:09:57.895Z,41.17
2023-02-05T08:15:06.097Z,38.63
2023-02-05T08:20:20.465Z,48.72
2023-02-05T08:25:30.036Z,46.63
2023-02-05T08:30:42.345Z,53.05
2023-02-05T08:35:54.611Z,73.20
2023-02-05T08:41:00.876Z,68.93
2023-02-05T08:46:17.485Z,64.97
2023-02-05T08:51:35.700Z,66.88
2023-02-05T08:56:47.167Z,76.05
2023-02-05T09:01:55.350Z,79.35
2023-02-05T09:07:01.148Z,66.87
2023-02-05T09:12:12.250Z,67.90
2023-02-05T09:17:21.442Z,59.35
2023-02-05T09:22:33.508Z,51.03
2023-02-05T09:27:43.307Z,59.00
2023-02-05T09:32:53.179Z,48.95
2023-02-05T09:38:07.214Z,74.90
2023-02-05T09:43:45.034Z,61.17
2023-02-05T09:49:20.313Z,59.35
2023-02-05T09:54:31.750Z,46.22
2023-02-05T09:59:38.070Z,62.00
2023-02-05T10:04:44.090Z,53.95
2023-02-05T10:10:30.952Z,37.70
2023-02-05T10:16:08.405Z,48.75
2023-02-05T10:21:54.724Z,55.80
2023-02-05T10:27:07.863Z,45.77
2023-02-05T10:32:51.905Z,47.10
2023-02-05T10:38:52.328Z,42.65
2023-02-05T10:44:19.664Z,38.15
2023-02-05T10:54:49.310Z,46.53
2023-02-05T11:00:04.408Z,45.40
2023-02-05T11:05:50.299Z,42.95
2023-02-05T11:11:06.171Z,47.20
2023-02-05T11:16:12.665Z,50.63
2023-02-05T11:21:22.500Z,46.92
2023-02-05T11:26:33.989Z,47.78
2023-02-05T11:31:46.073Z,50.17
2023-02-05T11:36:56.059Z,43.28
2023-02-05T11:42:34.690Z,52.38
2023-02-05T11:47:46.081Z,57.88
2023-02-05T11:58:38.407Z,70.45
2023-02-05T12:04:09.824Z,66.55
2023-02-05T12:09:23.821Z,68.50
2023-02-05T12:14:37.441Z,59.95
2023-02-05T12:20:17.222Z,68.53
2023-02-05T12:25:42.749Z,67.68
2023-02-05T12:31:21.109Z,69.38
2023-02-05T12:36:48.164Z,58.92
2023-02-05T12:42:24.286Z,57.20
2023-02-05T12:47:57.210Z,58.53
2023-02-05T13:10:34.832Z,65.75
2023-02-05T13:16:09.424Z,61.80
2023-02-05T13:21:50.913Z,67.82
2023-02-05T13:27:20.623Z,63.00
2023-02-05T13:32:36.154Z,58.95
2023-02-05T13:38:41.332Z,55.97
2023-02-05T13:44:10.277Z,64.32
2023-02-05T13:49:24.565Z,40.20
2023-02-05T13:55:00.516Z,59.33
2023-02-05T14:00:25.802Z,57.37
2023-02-05T14:05:35.325Z,54.83
2023-02-05T14:10:49.556Z,57.20
2023-02-05T14:16:01.246Z,64.80
2023-02-05T14:21:33.364Z,54.85
2023-02-05T14:26:51.073Z,57.35
2023-02-05T14:32:04.300Z,60.80
2023-02-05T14:37:38.624Z,65.90
2023-02-05T14:42:57.110Z,71.68
2023-02-05T14:48:36.471Z,62.88
2023-02-05T14:54:08.567Z,69.75
2023-02-05T14:59:49.038Z,64.35
2023-02-05T15:05:01.246Z,77.47
2023-02-05T15:10:19.106Z,68.70
2023-02-05T15:15:46.736Z,51.35
2023-02-05T15:21:01.876Z,67.70
2023-02-05T15:26:25.423Z,86.80
2023-02-05T15:32:12.062Z,65.13
2023-02-05T15:37:38.354Z,49.22
2023-02-05T15:42:49.595Z,63.70
2023-02-05T15:48:12.870Z,54.53
2023-02-05T15:53:41.240Z,50.30
2023-02-05T15:59:02.495Z,66.18
2023-02-05T16:04:47.402Z,46.60
2023-02-05T16:09:57.787Z,47.40
2023-02-05T16:15:53.865Z,59.13
2023-02-05T16:21:03.713Z,43.88
2023-02-05T16:26:22.214Z,53.33
2023-02-05T16:31:29.692Z,48.17
2023-02-05T16:36:39.834Z,31.65
2023-02-05T16:42:03.486Z,47.42
2023-02-05T16:47:22.518Z,51.40
2023-02-05T16:52:32.339Z,40.13
2023-02-05T16:58:07.733Z,37.45
2023-02-05T17:03:21.393Z,36.03
2023-02-05T17:08:38.108Z,49.75
2023-02-05T17:13:45.922Z,32.92
2023-02-05T17:19:00.028Z,34.38
2023-02-05T17:24:10.630Z,43.35
2023-02-05T17:29:18.972Z,39.97
2023-02-05T17:34:24.344Z,39.03
2023-02-05T17:39:29.818Z,38.67
2023-02-05T17:44:35.947Z,34.67
2023-02-05T17:49:41.236Z,36.65
2023-02-05T17:54:47.751Z,32.35
2023-02-05T17:59:53.290Z,37.05
2023-02-05T18:04:58.436Z,33.67
2023-02-05T18:10:04.926Z,36.03
2023-02-05T18:15:11.016Z,34.42
2023-02-05T18:20:18.797Z,30.77
2023-02-05T18:25:24.120Z,36.20
2023-02-05T18:30:30.042Z,34.72
2023-02-05T18:35:35.791Z,31.85
2023-02-05T18:40:43.286Z,35.07
2023-02-05T18:45:48.712Z,33.15
2023-02-05T18:50:54.198Z,30.95
2023-02-05T18:56:26.715Z,33.93
2023-02-05T19:01:33.331Z,32.15
2023-02-05T19:06:38.748Z,27.33
2023-02-05T19:11:45.482Z,31.23
2023-02-05T19:16:52.192Z,30.98
2023-02-05T19:22:03.419Z,24.00
2023-02-05T19:27:09.250Z,28.27
2023-02-05T19:32:15.222Z,48.92
2023-02-05T19:37:20.490Z,39.25
2023-02-05T19:42:26.406Z,49.97
2023-02-05T19:52:36.940Z,46.88
2023-02-05T19:57:42.289Z,44.13
2023-02-05T20:02:47.849Z,51.97
2023-02-05T20:07:54.236Z,47.28
2023-02-05T20:18:05.145Z,58.13
2023-02-05T20:23:10.678Z,49.30
2023-02-05T20:28:16.231Z,34.83
2023-02-05T20:33:21.629Z,45.53
2023-02-05T20:38:27.157Z,37.77
2023-02-05T20:43:32.651Z,39.83
2023-02-05T20:48:38.362Z,38.07
2023-02-05T20:53:44.176Z,47.10
2023-02-05T20:58:49.840Z,58.20
2023-02-05T21:04:01.636Z,48.60
2023-02-05T21:09:08.974Z,46.78
2023-02-05T21:14:14.183Z,47.25
2023-02-05T21:19:20.490Z,44.47
2023-02-05T21:29:31.087Z,39.53
2023-02-05T21:34:36.633Z,40.40
2023-02-05T21:39:42.453Z,37.47
2023-02-05T21:44:50.722Z,53.35
2023-02-05T21:49:56.041Z,50.65
2023-02-05T21:55:01.918Z,50.80
2023-02-05T22:00:07.793Z,56.65
2023-02-05T22:05:19.080Z,48.83
2023-02-05T22:10:25.426Z,44.83
2023-02-05T22:15:32.850Z,56.65
2023-02-05T22:20:38.234Z,43.13
2023-02-05T22:25:49.012Z,62.22
2023-02-05T22:31:00.126Z,47.38
2023-02-05T22:36:07.195Z,46.28
2023-02-05T22:41:18.186Z,48.55
2023-02-05T22:46:26.470Z,44.47
2023-02-05T22:51:35.694Z,51.72
2023-02-05T22:56:41.541Z,54.88
2023-02-05T23:01:47.330Z,38.15
2023-02-05T23:06:52.601Z,51.10
2023-02-05T23:11:58.182Z,39.97
2023-02-05T23:17:03.818Z,62.15
2023-02-05T23:22:11.781Z,51.93
2023-02-05T23:27:17.257Z,51.97
2023-02-05T23:32:22.513Z,53.70
2023-02-05T23:37:27.827Z,43.55
2023-02-05T23:42:33.641Z,51.13
2023-02-05T23:47:38.998Z,51.23
2023-02-05T23:52:44.520Z,69.63
2023-02-05T23:57:50.913Z,77.60
